createdAt,value
2023-03-10T00:00:05.980Z,1.90
2023-03-10T00:05:08.556Z,2.33
2023-03-10T00:10:12.232Z,1.90
2023-03-10T00:15:14.510Z,1.80
2023-03-10T00:20:16.724Z,1.60
2023-03-10T00:25:19.163Z,1.93
2023-03-10T00:30:21.452Z,1.63
2023-03-10T00:35:23.445Z,2.00
2023-03-10T00:40:25.585Z,1.80
2023-03-10T00:45:27.549Z,2.00
2023-03-10T00:50:29.667Z,2.30
2023-03-10T00:55:31.816Z,2.30
2023-03-10T01:00:33.814Z,1.80
2023-03-10T01:05:35.626Z,4.63
2023-03-10T01:10:37.572Z,3.13
2023-03-10T01:15:40.948Z,3.43
2023-03-10T01:20:43.386Z,3.40
2023-03-10T01:25:45.575Z,2.83
2023-03-10T01:30:48.915Z,2.90
2023-03-10T01:35:50.835Z,3.00
2023-03-10T01:40:52.840Z,2.60
2023-03-10T01:45:54.628Z,2.73
2023-03-10T01:50:57.786Z,2.10
2023-03-10T01:56:04.192Z,2.67
2023-03-10T02:01:07.691Z,2.37
2023-03-10T02:06:14.149Z,3.03
2023-03-10T02:11:17.454Z,2.70
2023-03-10T02:16:20.201Z,2.47
2023-03-10T02:21:34.478Z,2.43
2023-03-10T02:27:04.942Z,2.90
2023-03-10T02:32:07.567Z,2.20
2023-03-10T02:37:22.704Z,2.47
2023-03-10T02:42:30.122Z,2.30
2023-03-10T02:47:32.540Z,2.60
2023-03-10T02:52:50.401Z,3.40
2023-03-10T02:57:52.642Z,3.13
2023-03-10T03:02:54.887Z,3.43
2023-03-10T03:07:57.105Z,2.83
2023-03-10T03:12:59.554Z,2.90
2023-03-10T03:18:04.520Z,2.87
2023-03-10T03:23:08.413Z,3.77
2023-03-10T03:28:12.305Z,2.80
2023-03-10T03:33:15.178Z,3.63
2023-03-10T03:38:18.181Z,3.70
2023-03-10T03:43:20.827Z,3.53
2023-03-10T03:48:23.981Z,3.13
2023-03-10T03:53:26.956Z,2.50
2023-03-10T03:59:33.521Z,2.30
2023-03-10T04:04:35.573Z,2.37
2023-03-10T04:09:41.820Z,2.20
2023-03-10T04:14:44.312Z,2.00
2023-03-10T04:19:54.176Z,1.80
2023-03-10T04:25:05.842Z,2.83
2023-03-10T04:30:13.073Z,1.67
2023-03-10T04:35:17.950Z,2.03
2023-03-10T04:40:20.338Z,1.50
2023-03-10T04:45:23.505Z,2.50
2023-03-10T04:50:27.809Z,2.23
2023-03-10T04:55:30.936Z,1.67
2023-03-10T05:00:35.527Z,1.77
2023-03-10T05:05:38.277Z,1.30
2023-03-10T05:10:43.933Z,1.40
2023-03-10T05:15:45.866Z,1.90
2023-03-10T05:20:56.032Z,2.23
2023-03-10T05:25:59.014Z,1.63
2023-03-10T05:31:02.017Z,2.77
2023-03-10T05:36:07.123Z,1.70
2023-03-10T05:41:11.408Z,2.40
2023-03-10T05:46:15.068Z,2.37
2023-03-10T05:51:22.156Z,1.87
2023-03-10T05:56:24.686Z,2.20
2023-03-10T06:01:30.608Z,2.83
2023-03-10T06:06:32.962Z,2.20
2023-03-10T06:11:34.860Z,1.83
2023-03-10T06:16:37.110Z,2.53
2023-03-10T06:21:39.108Z,1.73
2023-03-10T06:26:41.417Z,2.30
2023-03-10T06:31:43.336Z,2.40
2023-03-10T06:36:45.245Z,3.70
2023-03-10T06:41:47.372Z,2.43
2023-03-10T06:46:49.397Z,2.47
2023-03-10T06:51:51.307Z,2.20
2023-03-10T06:56:53.382Z,2.60
2023-03-10T07:01:55.181Z,2.37
2023-03-10T07:06:57.228Z,2.23
2023-03-10T07:11:59.267Z,2.50
2023-03-10T07:17:02.844Z,2.77
2023-03-10T07:22:04.957Z,2.20
2023-03-10T07:27:07.161Z,2.27
2023-03-10T07:32:09.210Z,2.43
2023-03-10T07:37:11.165Z,2.70
2023-03-10T07:42:13.289Z,3.00
2023-03-10T07:47:18.167Z,2.30
2023-03-10T07:52:22.658Z,2.30
2023-03-10T07:57:25.473Z,2.70
2023-03-10T08:02:28.093Z,2.77
2023-03-10T08:07:31.871Z,2.20
2023-03-10T08:12:34.465Z,2.40
2023-03-10T08:17:36.886Z,2.23
2023-03-10T08:22:39.066Z,1.87
2023-03-10T08:27:41.603Z,2.07
2023-03-10T08:32:44.004Z,1.33
2023-03-10T08:37:46.435Z,1.43
2023-03-10T08:42:48.762Z,1.67
2023-03-10T08:47:50.874Z,1.67
2023-03-10T08:52:52.873Z,1.00
2023-03-10T08:57:54.670Z,1.53
2023-03-10T09:02:57.201Z,1.00
2023-03-10T09:07:59.059Z,0.93
2023-03-10T09:13:13.026Z,1.00
2023-03-10T09:18:16.010Z,1.10
2023-03-10T09:23:18.962Z,0.97
2023-03-10T09:28:21.688Z,1.03
2023-03-10T09:33:23.902Z,1.30
2023-03-10T09:38:26.111Z,1.50
2023-03-10T09:43:35.444Z,1.20
2023-03-10T09:48:56.305Z,1.33
2023-03-10T09:54:33.445Z,1.37
2023-03-10T09:59:39.650Z,1.90
2023-03-10T10:04:43.034Z,2.03
2023-03-10T10:09:53.146Z,3.20
2023-03-10T10:15:06.892Z,3.43
2023-03-10T10:20:21.099Z,2.47
2023-03-10T10:25:25.014Z,2.90
2023-03-10T10:30:36.274Z,2.30
2023-03-10T10:36:06.116Z,2.80
2023-03-10T10:41:17.970Z,2.30
2023-03-10T10:46:27.302Z,2.23
2023-03-10T10:51:32.387Z,1.90
2023-03-10T10:56:34.325Z,2.17
2023-03-10T11:02:11.764Z,2.17
2023-03-10T11:07:25.403Z,6.50
2023-03-10T11:12:34.174Z,5.00
2023-03-10T11:18:06.576Z,5.23
2023-03-10T11:23:22.042Z,2.30
2023-03-10T11:28:53.159Z,3.07
2023-03-10T11:34:20.602Z,2.50
2023-03-10T11:39:50.086Z,2.30
2023-03-10T11:44:51.927Z,3.20
2023-03-10T11:50:05.035Z,1.10
2023-03-10T11:55:16.425Z,1.00
2023-03-10T12:00:30.645Z,1.50
2023-03-10T12:05:44.069Z,1.30
2023-03-10T12:10:46.239Z,1.80
2023-03-10T12:15:49.322Z,1.10
2023-03-10T12:21:21.999Z,1.70
2023-03-10T12:26:45.117Z,1.80
2023-03-10T12:31:55.376Z,1.20
2023-03-10T12:37:12.142Z,1.53
2023-03-10T12:42:32.486Z,1.70
2023-03-10T12:48:03.959Z,1.70
2023-03-10T12:53:30.717Z,3.03
2023-03-10T12:58:36.135Z,1.50
2023-03-10T13:03:51.645Z,2.00
2023-03-10T13:09:10.801Z,1.90
2023-03-10T13:14:15.857Z,2.33
2023-03-10T13:19:22.519Z,2.03
2023-03-10T13:24:31.016Z,2.50
2023-03-10T13:29:33.794Z,1.80
2023-03-10T13:34:37.031Z,1.70
2023-03-10T13:39:39.292Z,2.53
2023-03-10T13:44:42.085Z,6.37
2023-03-10T13:49:56.154Z,5.43
2023-03-10T13:55:16.173Z,4.87
2023-03-10T14:00:24.009Z,3.50
2023-03-10T14:05:45.672Z,1.40
2023-03-10T14:10:47.907Z,1.03
2023-03-10T14:15:54.193Z,0.73
2023-03-10T14:20:57.013Z,0.80
2023-03-10T14:25:59.329Z,1.27
2023-03-10T14:31:02.809Z,1.60
2023-03-10T14:36:11.150Z,1.60
2023-03-10T14:41:14.115Z,3.00
2023-03-10T14:46:16.179Z,2.40
2023-03-10T14:51:32.649Z,2.93
2023-03-10T14:56:36.123Z,2.60
2023-03-10T15:01:38.209Z,1.87
2023-03-10T15:06:40.390Z,1.83
2023-03-10T15:11:42.835Z,2.10
2023-03-10T15:16:45.016Z,2.13
2023-03-10T15:21:47.010Z,3.10
2023-03-10T15:26:49.165Z,3.10
2023-03-10T15:31:51.280Z,2.40
2023-03-10T15:36:53.228Z,2.60
2023-03-10T15:41:55.249Z,2.20
2023-03-10T15:46:57.416Z,2.60
2023-03-10T15:51:59.455Z,2.23
2023-03-10T15:57:01.332Z,2.67
2023-03-10T16:02:03.624Z,2.73
2023-03-10T16:07:05.818Z,1.67
2023-03-10T16:12:08.053Z,1.00
2023-03-10T16:17:12.049Z,1.23
2023-03-10T16:22:15.692Z,0.63
2023-03-10T16:27:17.904Z,0.80
2023-03-10T16:32:20.009Z,0.40
2023-03-10T16:37:21.974Z,1.30
2023-03-10T16:42:24.405Z,0.23
2023-03-10T16:47:28.060Z,1.50
2023-03-10T16:52:30.647Z,1.20
2023-03-10T16:57:32.624Z,1.10
2023-03-10T17:02:34.694Z,1.27
2023-03-10T17:07:46.521Z,0.90
2023-03-10T17:12:55.670Z,1.67
2023-03-10T17:17:57.697Z,1.20
2023-03-10T17:22:59.865Z,1.40
2023-03-10T17:28:01.711Z,1.33
2023-03-10T17:33:03.779Z,1.30
2023-03-10T17:38:05.684Z,1.00
2023-03-10T17:43:23.068Z,1.20
2023-03-10T17:48:30.187Z,0.97
2023-03-10T17:53:32.050Z,1.70
2023-03-10T17:58:35.161Z,0.90
2023-03-10T18:03:37.452Z,1.37
2023-03-10T18:08:39.808Z,1.10
2023-03-10T18:13:41.902Z,1.07
2023-03-10T18:18:44.740Z,1.10
2023-03-10T18:23:48.247Z,1.80
2023-03-10T18:28:50.627Z,2.00
2023-03-10T18:33:52.846Z,1.77
2023-03-10T18:38:54.973Z,1.93
2023-03-10T18:43:57.266Z,1.60
2023-03-10T18:48:59.483Z,2.07
2023-03-10T18:54:01.516Z,1.67
2023-03-10T18:59:03.733Z,1.43
2023-03-10T19:04:05.510Z,1.17
2023-03-10T19:09:09.138Z,1.40
2023-03-10T19:14:11.438Z,1.60
2023-03-10T19:19:13.498Z,1.30
2023-03-10T19:24:16.618Z,1.60
2023-03-10T19:29:18.748Z,2.80
2023-03-10T19:34:20.757Z,3.03
2023-03-10T19:39:23.826Z,2.23
2023-03-10T19:44:27.331Z,2.40
2023-03-10T19:49:29.779Z,2.20
2023-03-10T19:54:31.852Z,2.00
2023-03-10T19:59:33.637Z,1.87
2023-03-10T20:04:36.118Z,2.50
2023-03-10T20:09:38.381Z,2.17
2023-03-10T20:14:40.392Z,2.77
2023-03-10T20:19:43.349Z,1.57
2023-03-10T20:24:46.145Z,1.57
2023-03-10T20:29:48.553Z,1.70
2023-03-10T20:34:51.388Z,1.70
2023-03-10T20:39:53.732Z,1.83
2023-03-10T20:44:55.541Z,2.30
2023-03-10T20:49:57.698Z,2.20
2023-03-10T20:54:59.738Z,1.93
2023-03-10T21:00:01.853Z,2.27
2023-03-10T21:05:05.918Z,2.30
2023-03-10T21:10:11.016Z,2.40
2023-03-10T21:15:15.454Z,2.80
2023-03-10T21:20:20.608Z,4.87
2023-03-10T21:25:25.234Z,3.30
2023-03-10T21:30:29.511Z,2.07
2023-03-10T21:35:34.277Z,2.67
2023-03-10T21:40:36.202Z,2.97
2023-03-10T21:45:38.774Z,3.10
2023-03-10T21:50:41.267Z,2.57
2023-03-10T21:55:43.312Z,2.70
2023-03-10T22:00:45.320Z,2.50
2023-03-10T22:05:47.599Z,2.30
2023-03-10T22:10:49.671Z,2.90
2023-03-10T22:15:51.907Z,2.87
2023-03-10T22:20:53.816Z,2.50
2023-03-10T22:25:56.046Z,2.47
2023-03-10T22:30:58.306Z,2.90
2023-03-10T22:36:08.954Z,2.70
2023-03-10T22:41:13.153Z,2.50
2023-03-10T22:46:18.301Z,2.07
2023-03-10T22:51:21.573Z,1.90
2023-03-10T22:56:24.384Z,2.33
2023-03-10T23:01:26.620Z,2.03
2023-03-10T23:06:29.194Z,2.03
2023-03-10T23:11:31.294Z,1.53
2023-03-10T23:16:36.380Z,2.90
2023-03-10T23:21:38.879Z,14.30
2023-03-10T23:26:41.217Z,26.80
2023-03-10T23:31:43.275Z,31.20
2023-03-10T23:36:45.424Z,19.57
2023-03-10T23:41:47.777Z,8.00
2023-03-10T23:46:53.511Z,4.43
2023-03-10T23:51:56.307Z,3.60
2023-03-10T23:56:58.348Z,3.17
